sensor_id;sensor_type;location;lat;lon;timestamp;pressure;altitude;pressure_sealevel;temperature;humidity
77381;BME280;66439;50.106;10.996;2023-08-06T00:00:09;97896.81;;;17.50;69.91
77381;BME280;66439;50.106;10.996;2023-08-06T00:02:32;97894.34;;;17.50;69.76
77381;BME280;66439;50.106;10.996;2023-08-06T00:04:35;97891.09;;;17.49;69.86
77381;BME280;66439;50.106;10.996;2023-08-06T00:06:38;97889.67;;;17.48;69.84
77381;BME280;66439;50.106;10.996;2023-08-06T00:08:42;97891.94;;;17.48;70.02
77381;BME280;66439;50.106;10.996;2023-08-06T00:10:47;97887.21;;;17.49;70.01
77381;BME280;66439;50.106;10.996;2023-08-06T00:12:53;97884.30;;;17.51;69.87
77381;BME280;66439;50.106;10.996;2023-08-06T00:14:57;97878.48;;;17.55;70.07
77381;BME280;66439;50.106;10.996;2023-08-06T00:16:59;97878.41;;;17.54;69.79
77381;BME280;66439;50.106;10.996;2023-08-06T00:19:03;97876.63;;;17.53;69.88
77381;BME280;66439;50.106;10.996;2023-08-06T00:21:06;97874.47;;;17.53;69.92
77381;BME280;66439;50.106;10.996;2023-08-06T00:23:10;97871.73;;;17.52;69.99
77381;BME280;66439;50.106;10.996;2023-08-06T00:25:14;97869.42;;;17.52;70.21
77381;BME280;66439;50.106;10.996;2023-08-06T00:27:17;97872.59;;;17.52;69.98
77381;BME280;66439;50.106;10.996;2023-08-06T00:29:21;97871.59;;;17.49;69.90
77381;BME280;66439;50.106;10.996;2023-08-06T00:31:24;97869.13;;;17.46;70.00
77381;BME280;66439;50.106;10.996;2023-08-06T00:33:27;97866.46;;;17.44;70.18
77381;BME280;66439;50.106;10.996;2023-08-06T00:35:30;97864.79;;;17.47;70.39
77381;BME280;66439;50.106;10.996;2023-08-06T00:37:33;97869.21;;;17.49;70.24
77381;BME280;66439;50.106;10.996;2023-08-06T00:39:37;97865.80;;;17.51;70.03
77381;BME280;66439;50.106;10.996;2023-08-06T00:41:40;97861.84;;;17.51;70.08
77381;BME280;66439;50.106;10.996;2023-08-06T00:43:44;97860.55;;;17.51;70.03
77381;BME280;66439;50.106;10.996;2023-08-06T00:45:51;97854.16;;;17.50;70.25
77381;BME280;66439;50.106;10.996;2023-08-06T00:47:55;97857.91;;;17.51;70.45
77381;BME280;66439;50.106;10.996;2023-08-06T00:49:59;97858.61;;;17.51;70.33
77381;BME280;66439;50.106;10.996;2023-08-06T00:52:13;97855.41;;;17.49;70.36
77381;BME280;66439;50.106;10.996;2023-08-06T00:54:21;97855.78;;;17.48;70.16
77381;BME280;66439;50.106;10.996;2023-08-06T00:56:25;97849.86;;;17.47;70.30
77381;BME280;66439;50.106;10.996;2023-08-06T00:58:28;97848.76;;;17.50;70.34
77381;BME280;66439;50.106;10.996;2023-08-06T01:00:32;97851.63;;;17.52;70.23
77381;BME280;66439;50.106;10.996;2023-08-06T01:02:37;97852.77;;;17.54;70.39
77381;BME280;66439;50.106;10.996;2023-08-06T01:04:41;97861.69;;;17.53;70.34
77381;BME280;66439;50.106;10.996;2023-08-06T01:06:47;97882.96;;;17.48;70.23
77381;BME280;66439;50.106;10.996;2023-08-06T01:08:58;97892.56;;;17.42;70.50
77381;BME280;66439;50.106;10.996;2023-08-06T01:13:48;97883.52;;;17.34;70.67
77381;BME280;66439;50.106;10.996;2023-08-06T01:15:55;97886.61;;;17.32;70.68
77381;BME280;66439;50.106;10.996;2023-08-06T01:18:02;97891.77;;;17.29;70.81
77381;BME280;66439;50.106;10.996;2023-08-06T01:20:06;97882.92;;;17.30;70.77
77381;BME280;66439;50.106;10.996;2023-08-06T01:22:10;97885.04;;;17.35;70.59
77381;BME280;66439;50.106;10.996;2023-08-06T01:24:14;97886.04;;;17.38;70.77
77381;BME280;66439;50.106;10.996;2023-08-06T01:26:37;97880.36;;;17.38;70.64
77381;BME280;66439;50.106;10.996;2023-08-06T01:30:48;97870.21;;;17.39;70.71
77381;BME280;66439;50.106;10.996;2023-08-06T01:33:05;97866.68;;;17.40;70.62
77381;BME280;66439;50.106;10.996;2023-08-06T01:35:15;97865.17;;;17.39;70.84
77381;BME280;66439;50.106;10.996;2023-08-06T01:37:20;97867.64;;;17.39;70.68
77381;BME280;66439;50.106;10.996;2023-08-06T01:39:23;97865.66;;;17.39;70.57
77381;BME280;66439;50.106;10.996;2023-08-06T01:41:26;97862.27;;;17.40;70.72
77381;BME280;66439;50.106;10.996;2023-08-06T01:43:37;97860.95;;;17.42;70.63
77381;BME280;66439;50.106;10.996;2023-08-06T01:45:41;97860.98;;;17.43;70.64
77381;BME280;66439;50.106;10.996;2023-08-06T01:47:46;97860.71;;;17.43;70.86
77381;BME280;66439;50.106;10.996;2023-08-06T01:49:49;97863.23;;;17.43;70.85
77381;BME280;66439;50.106;10.996;2023-08-06T01:51:53;97859.54;;;17.44;70.73
77381;BME280;66439;50.106;10.996;2023-08-06T01:53:56;97857.06;;;17.45;70.56
77381;BME280;66439;50.106;10.996;2023-08-06T01:55:59;97851.36;;;17.44;70.66
77381;BME280;66439;50.106;10.996;2023-08-06T01:58:03;97847.63;;;17.42;70.59
77381;BME280;66439;50.106;10.996;2023-08-06T02:00:10;97843.42;;;17.41;70.61
77381;BME280;66439;50.106;10.996;2023-08-06T02:02:16;97836.80;;;17.39;70.67
77381;BME280;66439;50.106;10.996;2023-08-06T02:04:19;97839.55;;;17.39;70.69
77381;BME280;66439;50.106;10.996;2023-08-06T02:06:22;97838.10;;;17.40;70.71
77381;BME280;66439;50.106;10.996;2023-08-06T02:08:27;97835.52;;;17.41;70.60
77381;BME280;66439;50.106;10.996;2023-08-06T02:10:31;97838.71;;;17.42;70.65
77381;BME280;66439;50.106;10.996;2023-08-06T02:12:35;97837.98;;;17.43;70.58
77381;BME280;66439;50.106;10.996;2023-08-06T02:14:38;97839.43;;;17.43;70.53
77381;BME280;66439;50.106;10.996;2023-08-06T02:16:41;97839.41;;;17.42;70.43
77381;BME280;66439;50.106;10.996;2023-08-06T02:18:44;97837.69;;;17.42;70.55
77381;BME280;66439;50.106;10.996;2023-08-06T02:20:57;97830.41;;;17.40;70.71
77381;BME280;66439;50.106;10.996;2023-08-06T02:23:00;97835.11;;;17.38;70.70
77381;BME280;66439;50.106;10.996;2023-08-06T02:25:03;97834.16;;;17.35;70.43
77381;BME280;66439;50.106;10.996;2023-08-06T02:27:07;97833.27;;;17.34;70.60
77381;BME280;66439;50.106;10.996;2023-08-06T02:29:12;97828.26;;;17.35;70.55
77381;BME280;66439;50.106;10.996;2023-08-06T02:31:19;97824.50;;;17.35;70.55
77381;BME280;66439;50.106;10.996;2023-08-06T02:33:22;97820.92;;;17.34;70.59
77381;BME280;66439;50.106;10.996;2023-08-06T02:35:26;97814.71;;;17.31;70.69
77381;BME280;66439;50.106;10.996;2023-08-06T02:37:29;97815.88;;;17.31;70.81
77381;BME280;66439;50.106;10.996;2023-08-06T02:39:34;97815.06;;;17.30;70.98
77381;BME280;66439;50.106;10.996;2023-08-06T02:41:38;97812.75;;;17.29;70.98
77381;BME280;66439;50.106;10.996;2023-08-06T02:43:41;97810.27;;;17.28;71.02
77381;BME280;66439;50.106;10.996;2023-08-06T02:45:56;97810.30;;;17.26;70.74
77381;BME280;66439;50.106;10.996;2023-08-06T02:48:00;97803.34;;;17.24;70.85
77381;BME280;66439;50.106;10.996;2023-08-06T02:50:05;97802.23;;;17.26;70.76
77381;BME280;66439;50.106;10.996;2023-08-06T02:52:08;97800.48;;;17.27;70.51
77381;BME280;66439;50.106;10.996;2023-08-06T02:54:11;97794.13;;;17.27;70.70
77381;BME280;66439;50.106;10.996;2023-08-06T02:56:14;97786.17;;;17.25;70.50
77381;BME280;66439;50.106;10.996;2023-08-06T02:58:34;97779.70;;;17.24;70.65
77381;BME280;66439;50.106;10.996;2023-08-06T03:01:04;97775.74;;;17.21;70.48
77381;BME280;66439;50.106;10.996;2023-08-06T03:03:13;97777.21;;;17.18;70.50
77381;BME280;66439;50.106;10.996;2023-08-06T03:05:26;97776.32;;;17.15;70.53
77381;BME280;66439;50.106;10.996;2023-08-06T03:07:31;97777.98;;;17.12;70.52
77381;BME280;66439;50.106;10.996;2023-08-06T03:09:42;97773.30;;;17.11;70.47
77381;BME280;66439;50.106;10.996;2023-08-06T03:11:45;97773.13;;;17.10;70.38
77381;BME280;66439;50.106;10.996;2023-08-06T03:13:53;97774.11;;;17.08;70.59
77381;BME280;66439;50.106;10.996;2023-08-06T03:15:57;97767.23;;;17.07;70.78
77381;BME280;66439;50.106;10.996;2023-08-06T03:18:01;97762.02;;;17.07;70.98
77381;BME280;66439;50.106;10.996;2023-08-06T03:20:04;97761.58;;;17.06;70.92
77381;BME280;66439;50.106;10.996;2023-08-06T03:22:08;97764.41;;;17.05;70.57
77381;BME280;66439;50.106;10.996;2023-08-06T03:24:13;97762.40;;;17.03;70.79
77381;BME280;66439;50.106;10.996;2023-08-06T03:26:17;97763.58;;;17.02;70.89
77381;BME280;66439;50.106;10.996;2023-08-06T03:28:24;97762.94;;;17.03;70.92
77381;BME280;66439;50.106;10.996;2023-08-06T03:30:28;97757.65;;;17.06;70.88
77381;BME280;66439;50.106;10.996;2023-08-06T03:32:32;97756.75;;;17.06;70.76
77381;BME280;66439;50.106;10.996;2023-08-06T03:34:36;97753.77;;;17.05;70.75
77381;BME280;66439;50.106;10.996;2023-08-06T03:36:39;97749.33;;;17.05;71.07
77381;BME280;66439;50.106;10.996;2023-08-06T03:38:44;97744.13;;;17.05;71.10
77381;BME280;66439;50.106;10.996;2023-08-06T03:40:49;97744.79;;;17.04;71.11
77381;BME280;66439;50.106;10.996;2023-08-06T03:42:52;97747.77;;;17.02;70.73
77381;BME280;66439;50.106;10.996;2023-08-06T03:44:57;97743.77;;;16.99;70.49
77381;BME280;66439;50.106;10.996;2023-08-06T03:47:01;97738.73;;;16.96;70.52
77381;BME280;66439;50.106;10.996;2023-08-06T03:49:04;97733.33;;;16.93;70.61
77381;BME280;66439;50.106;10.996;2023-08-06T03:51:16;97733.66;;;16.93;70.58
77381;BME280;66439;50.106;10.996;2023-08-06T03:53:21;97729.20;;;16.93;70.51
77381;BME280;66439;50.106;10.996;2023-08-06T03:55:25;97722.84;;;16.92;70.60
77381;BME280;66439;50.106;10.996;2023-08-06T03:57:27;97722.23;;;16.91;70.76
77381;BME280;66439;50.106;10.996;2023-08-06T03:59:31;97721.38;;;16.91;71.08
77381;BME280;66439;50.106;10.996;2023-08-06T04:01:35;97718.84;;;16.90;70.96
77381;BME280;66439;50.106;10.996;2023-08-06T04:03:38;97722.63;;;16.89;70.74
77381;BME280;66439;50.106;10.996;2023-08-06T04:05:41;97721.20;;;16.86;70.86
77381;BME280;66439;50.106;10.996;2023-08-06T04:07:45;97720.65;;;16.85;70.88
77381;BME280;66439;50.106;10.996;2023-08-06T04:09:56;97727.12;;;16.86;70.85
77381;BME280;66439;50.106;10.996;2023-08-06T04:12:00;97730.38;;;16.86;70.57
77381;BME280;66439;50.106;10.996;2023-08-06T04:14:06;97734.22;;;16.84;70.64
77381;BME280;66439;50.106;10.996;2023-08-06T04:16:09;97732.81;;;16.83;70.85
77381;BME280;66439;50.106;10.996;2023-08-06T04:18:12;97733.45;;;16.82;70.78
77381;BME280;66439;50.106;10.996;2023-08-06T04:20:16;97727.04;;;16.81;70.94
77381;BME280;66439;50.106;10.996;2023-08-06T04:22:20;97726.45;;;16.82;71.18
77381;BME280;66439;50.106;10.996;2023-08-06T04:24:27;97721.67;;;16.81;70.85
77381;BME280;66439;50.106;10.996;2023-08-06T04:26:31;97723.70;;;16.81;70.67
77381;BME280;66439;50.106;10.996;2023-08-06T04:28:35;97722.99;;;16.80;70.73
77381;BME280;66439;50.106;10.996;2023-08-06T04:30:38;97727.28;;;16.78;70.98
77381;BME280;66439;50.106;10.996;2023-08-06T04:32:43;97729.52;;;16.81;70.91
77381;BME280;66439;50.106;10.996;2023-08-06T04:34:48;97734.80;;;16.84;70.90
77381;BME280;66439;50.106;10.996;2023-08-06T04:36:51;97734.65;;;16.84;70.60
77381;BME280;66439;50.106;10.996;2023-08-06T04:38:55;97737.26;;;16.82;70.73
77381;BME280;66439;50.106;10.996;2023-08-06T04:41:02;97738.61;;;16.80;70.73
77381;BME280;66439;50.106;10.996;2023-08-06T04:43:06;97737.95;;;16.79;70.85
77381;BME280;66439;50.106;10.996;2023-08-06T04:45:10;97736.19;;;16.79;70.87
77381;BME280;66439;50.106;10.996;2023-08-06T04:47:14;97737.58;;;16.78;70.86
77381;BME280;66439;50.106;10.996;2023-08-06T04:49:21;97740.67;;;16.77;70.87
77381;BME280;66439;50.106;10.996;2023-08-06T04:51:24;97736.12;;;16.78;70.92
77381;BME280;66439;50.106;10.996;2023-08-06T04:53:28;97733.67;;;16.79;70.95
77381;BME280;66439;50.106;10.996;2023-08-06T04:55:39;97736.95;;;16.80;70.71
77381;BME280;66439;50.106;10.996;2023-08-06T04:57:42;97732.02;;;16.80;70.72
77381;BME280;66439;50.106;10.996;2023-08-06T04:59:46;97733.84;;;16.79;70.59
77381;BME280;66439;50.106;10.996;2023-08-06T05:01:50;97734.77;;;16.77;70.68
77381;BME280;66439;50.106;10.996;2023-08-06T05:03:55;97733.73;;;16.76;70.85
77381;BME280;66439;50.106;10.996;2023-08-06T05:05:58;97727.12;;;16.75;70.86
77381;BME280;66439;50.106;10.996;2023-08-06T05:08:01;97725.08;;;16.74;70.99
77381;BME280;66439;50.106;10.996;2023-08-06T05:10:04;97724.90;;;16.74;71.00
77381;BME280;66439;50.106;10.996;2023-08-06T05:12:09;97723.86;;;16.75;71.19
77381;BME280;66439;50.106;10.996;2023-08-06T05:14:12;97721.09;;;16.78;71.00
77381;BME280;66439;50.106;10.996;2023-08-06T05:16:17;97722.41;;;16.80;70.85
77381;BME280;66439;50.106;10.996;2023-08-06T05:18:24;97723.65;;;16.81;70.87
77381;BME280;66439;50.106;10.996;2023-08-06T05:20:28;97727.02;;;16.80;70.95
77381;BME280;66439;50.106;10.996;2023-08-06T05:22:31;97723.83;;;16.78;70.93
77381;BME280;66439;50.106;10.996;2023-08-06T05:24:35;97721.77;;;16.77;70.79
77381;BME280;66439;50.106;10.996;2023-08-06T05:26:39;97721.29;;;16.77;70.78
77381;BME280;66439;50.106;10.996;2023-08-06T05:28:42;97722.95;;;16.77;70.96
77381;BME280;66439;50.106;10.996;2023-08-06T05:30:47;97722.04;;;16.76;70.85
77381;BME280;66439;50.106;10.996;2023-08-06T05:32:51;97722.83;;;16.73;70.71
77381;BME280;66439;50.106;10.996;2023-08-06T05:34:53;97722.27;;;16.71;70.93
77381;BME280;66439;50.106;10.996;2023-08-06T05:36:56;97722.80;;;16.72;70.93
77381;BME280;66439;50.106;10.996;2023-08-06T05:39:03;97722.40;;;16.75;71.07
77381;BME280;66439;50.106;10.996;2023-08-06T05:41:09;97722.55;;;16.79;71.27
77381;BME280;66439;50.106;10.996;2023-08-06T05:43:12;97719.41;;;16.81;71.23
77381;BME280;66439;50.106;10.996;2023-08-06T05:45:15;97716.95;;;16.82;71.15
77381;BME280;66439;50.106;10.996;2023-08-06T05:47:22;97716.99;;;16.85;71.13
77381;BME280;66439;50.106;10.996;2023-08-06T05:49:26;97715.93;;;16.86;71.25
77381;BME280;66439;50.106;10.996;2023-08-06T05:51:30;97716.50;;;16.88;70.95
77381;BME280;66439;50.106;10.996;2023-08-06T05:53:34;97718.17;;;16.87;71.12
77381;BME280;66439;50.106;10.996;2023-08-06T05:55:38;97719.00;;;16.86;70.91
77381;BME280;66439;50.106;10.996;2023-08-06T05:57:42;97719.30;;;16.84;70.99
77381;BME280;66439;50.106;10.996;2023-08-06T05:59:46;97722.15;;;16.85;70.79
77381;BME280;66439;50.106;10.996;2023-08-06T06:01:50;97720.77;;;16.86;70.98
77381;BME280;66439;50.106;10.996;2023-08-06T06:03:55;97722.28;;;16.90;71.05
77381;BME280;66439;50.106;10.996;2023-08-06T06:06:00;97721.98;;;16.91;70.97
77381;BME280;66439;50.106;10.996;2023-08-06T06:08:06;97719.36;;;16.93;70.91
77381;BME280;66439;50.106;10.996;2023-08-06T06:10:09;97715.75;;;16.96;70.99
77381;BME280;66439;50.106;10.996;2023-08-06T06:12:12;97718.33;;;16.99;71.04
77381;BME280;66439;50.106;10.996;2023-08-06T06:14:19;97715.96;;;17.00;70.84
77381;BME280;66439;50.106;10.996;2023-08-06T06:16:29;97714.13;;;17.00;70.95
77381;BME280;66439;50.106;10.996;2023-08-06T06:18:34;97714.86;;;17.01;70.82
77381;BME280;66439;50.106;10.996;2023-08-06T06:20:38;97712.59;;;17.05;70.88
77381;BME280;66439;50.106;10.996;2023-08-06T06:22:42;97704.64;;;17.13;70.99
77381;BME280;66439;50.106;10.996;2023-08-06T06:24:46;97710.55;;;17.22;70.93
77381;BME280;66439;50.106;10.996;2023-08-06T06:26:49;97707.73;;;17.29;70.77
77381;BME280;66439;50.106;10.996;2023-08-06T06:28:54;97702.42;;;17.35;70.64
77381;BME280;66439;50.106;10.996;2023-08-06T06:31:02;97700.58;;;17.38;70.42
77381;BME280;66439;50.106;10.996;2023-08-06T06:33:09;97702.49;;;17.41;70.35
77381;BME280;66439;50.106;10.996;2023-08-06T06:35:14;97703.08;;;17.40;70.06
77381;BME280;66439;50.106;10.996;2023-08-06T06:37:18;97700.45;;;17.39;70.05
77381;BME280;66439;50.106;10.996;2023-08-06T06:39:21;97698.73;;;17.37;69.97
77381;BME280;66439;50.106;10.996;2023-08-06T06:41:25;97694.55;;;17.38;69.76
77381;BME280;66439;50.106;10.996;2023-08-06T06:43:34;97697.17;;;17.40;69.89
77381;BME280;66439;50.106;10.996;2023-08-06T06:45:37;97691.67;;;17.43;70.30
77381;BME280;66439;50.106;10.996;2023-08-06T06:47:42;97690.34;;;17.45;70.36
77381;BME280;66439;50.106;10.996;2023-08-06T06:49:47;97692.80;;;17.48;70.33
77381;BME280;66439;50.106;10.996;2023-08-06T06:51:50;97692.31;;;17.48;69.93
77381;BME280;66439;50.106;10.996;2023-08-06T06:53:54;97692.79;;;17.46;69.77
77381;BME280;66439;50.106;10.996;2023-08-06T06:56:04;97691.95;;;17.45;69.72
77381;BME280;66439;50.106;10.996;2023-08-06T06:58:08;97690.88;;;17.44;69.55
77381;BME280;66439;50.106;10.996;2023-08-06T07:00:12;97688.35;;;17.44;69.60
77381;BME280;66439;50.106;10.996;2023-08-06T07:02:18;97686.83;;;17.47;69.65
77381;BME280;66439;50.106;10.996;2023-08-06T07:04:22;97689.69;;;17.54;69.76
77381;BME280;66439;50.106;10.996;2023-08-06T07:06:26;97689.06;;;17.57;69.81
77381;BME280;66439;50.106;10.996;2023-08-06T07:08:32;97688.02;;;17.65;69.62
77381;BME280;66439;50.106;10.996;2023-08-06T07:10:38;97688.30;;;17.71;69.40
77381;BME280;66439;50.106;10.996;2023-08-06T07:12:45;97688.06;;;17.77;69.24
77381;BME280;66439;50.106;10.996;2023-08-06T07:14:49;97688.89;;;17.80;69.20
77381;BME280;66439;50.106;10.996;2023-08-06T07:16:54;97688.34;;;17.80;69.22
77381;BME280;66439;50.106;10.996;2023-08-06T07:18:58;97689.14;;;17.83;69.30
77381;BME280;66439;50.106;10.996;2023-08-06T07:21:01;97684.67;;;17.88;68.97
77381;BME280;66439;50.106;10.996;2023-08-06T07:23:05;97682.52;;;17.94;69.04
77381;BME280;66439;50.106;10.996;2023-08-06T07:25:12;97680.48;;;18.03;68.70
77381;BME280;66439;50.106;10.996;2023-08-06T07:27:18;97678.40;;;18.10;68.74
77381;BME280;66439;50.106;10.996;2023-08-06T07:29:22;97679.63;;;18.14;68.46
77381;BME280;66439;50.106;10.996;2023-08-06T07:31:25;97682.71;;;18.18;68.37
77381;BME280;66439;50.106;10.996;2023-08-06T07:33:28;97682.03;;;18.20;68.04
77381;BME280;66439;50.106;10.996;2023-08-06T07:35:33;97680.15;;;18.19;68.06
77381;BME280;66439;50.106;10.996;2023-08-06T07:37:36;97674.98;;;18.21;67.97
77381;BME280;66439;50.106;10.996;2023-08-06T07:39:40;97674.66;;;18.19;67.99
77381;BME280;66439;50.106;10.996;2023-08-06T07:41:47;97674.42;;;18.17;67.83
77381;BME280;66439;50.106;10.996;2023-08-06T07:43:53;97671.65;;;18.21;67.76
77381;BME280;66439;50.106;10.996;2023-08-06T07:46:00;97668.17;;;18.24;67.92
77381;BME280;66439;50.106;10.996;2023-08-06T07:48:05;97667.20;;;18.31;67.83
77381;BME280;66439;50.106;10.996;2023-08-06T07:50:09;97664.38;;;18.35;67.79
77381;BME280;66439;50.106;10.996;2023-08-06T07:52:13;97667.34;;;18.42;67.80
77381;BME280;66439;50.106;10.996;2023-08-06T07:54:17;97660.18;;;18.52;67.75
77381;BME280;66439;50.106;10.996;2023-08-06T07:56:20;97658.21;;;18.56;67.08
77381;BME280;66439;50.106;10.996;2023-08-06T07:58:26;97658.40;;;18.58;66.93
77381;BME280;66439;50.106;10.996;2023-08-06T08:00:29;97651.43;;;18.63;67.00
77381;BME280;66439;50.106;10.996;2023-08-06T08:02:32;97653.27;;;18.66;66.88
77381;BME280;66439;50.106;10.996;2023-08-06T08:04:37;97654.67;;;18.67;66.92
77381;BME280;66439;50.106;10.996;2023-08-06T08:06:41;97651.17;;;18.67;66.26
77381;BME280;66439;50.106;10.996;2023-08-06T08:08:44;97647.16;;;18.62;65.93
77381;BME280;66439;50.106;10.996;2023-08-06T08:10:51;97641.60;;;18.57;66.22
77381;BME280;66439;50.106;10.996;2023-08-06T08:12:58;97638.61;;;18.55;66.28
77381;BME280;66439;50.106;10.996;2023-08-06T08:15:01;97636.63;;;18.55;66.30
77381;BME280;66439;50.106;10.996;2023-08-06T08:17:06;97633.17;;;18.53;66.10
77381;BME280;66439;50.106;10.996;2023-08-06T08:19:09;97629.55;;;18.51;66.20
77381;BME280;66439;50.106;10.996;2023-08-06T08:21:14;97625.36;;;18.52;66.56
77381;BME280;66439;50.106;10.996;2023-08-06T08:23:20;97626.00;;;18.60;66.47
77381;BME280;66439;50.106;10.996;2023-08-06T08:25:25;97626.40;;;18.66;66.16
77381;BME280;66439;50.106;10.996;2023-08-06T08:27:32;97626.07;;;18.70;66.30
77381;BME280;66439;50.106;10.996;2023-08-06T08:29:41;97627.14;;;18.75;66.18
77381;BME280;66439;50.106;10.996;2023-08-06T08:31:54;97625.95;;;18.78;65.75
77381;BME280;66439;50.106;10.996;2023-08-06T08:33:59;97624.98;;;18.77;65.65
77381;BME280;66439;50.106;10.996;2023-08-06T08:36:04;97626.21;;;18.76;65.36
77381;BME280;66439;50.106;10.996;2023-08-06T08:38:09;97625.06;;;18.73;65.50
77381;BME280;66439;50.106;10.996;2023-08-06T08:40:14;97629.22;;;18.72;65.50
77381;BME280;66439;50.106;10.996;2023-08-06T08:42:17;97630.41;;;18.75;65.49
77381;BME280;66439;50.106;10.996;2023-08-06T08:44:22;97626.83;;;18.81;65.38
77381;BME280;66439;50.106;10.996;2023-08-06T08:46:30;97621.14;;;18.84;64.97
77381;BME280;66439;50.106;10.996;2023-08-06T08:48:38;97623.45;;;18.87;64.69
77381;BME280;66439;50.106;10.996;2023-08-06T08:50:43;97624.46;;;18.93;64.80
77381;BME280;66439;50.106;10.996;2023-08-06T08:52:47;97622.31;;;18.93;64.40
77381;BME280;66439;50.106;10.996;2023-08-06T08:54:52;97622.65;;;18.86;64.17
77381;BME280;66439;50.106;10.996;2023-08-06T08:56:56;97624.72;;;18.79;64.31
77381;BME280;66439;50.106;10.996;2023-08-06T08:59:01;97636.17;;;18.68;64.64
77381;BME280;66439;50.106;10.996;2023-08-06T09:01:12;97635.25;;;18.51;64.92
77381;BME280;66439;50.106;10.996;2023-08-06T09:03:19;97642.52;;;18.32;65.48
77381;BME280;66439;50.106;10.996;2023-08-06T09:05:23;97645.12;;;18.19;66.02
77381;BME280;66439;50.106;10.996;2023-08-06T09:07:35;97648.14;;;18.13;66.60
77381;BME280;66439;50.106;10.996;2023-08-06T09:09:48;97647.79;;;18.08;67.05
77381;BME280;66439;50.106;10.996;2023-08-06T09:12:01;97651.79;;;18.05;67.25
77381;BME280;66439;50.106;10.996;2023-08-06T09:14:06;97648.70;;;18.03;67.74
77381;BME280;66439;50.106;10.996;2023-08-06T09:16:12;97644.10;;;18.06;68.01
77381;BME280;66439;50.106;10.996;2023-08-06T09:18:25;97645.98;;;18.11;68.71
77381;BME280;66439;50.106;10.996;2023-08-06T09:20:29;97643.87;;;18.17;68.91
77381;BME280;66439;50.106;10.996;2023-08-06T09:22:36;97639.81;;;18.22;68.44
77381;BME280;66439;50.106;10.996;2023-08-06T09:24:41;97637.29;;;18.22;68.09
77381;BME280;66439;50.106;10.996;2023-08-06T09:26:45;97639.19;;;18.24;68.10
77381;BME280;66439;50.106;10.996;2023-08-06T09:28:52;97641.59;;;18.29;68.24
77381;BME280;66439;50.106;10.996;2023-08-06T09:30:59;97639.18;;;18.31;68.02
77381;BME280;66439;50.106;10.996;2023-08-06T09:33:08;97633.63;;;18.32;67.69
77381;BME280;66439;50.106;10.996;2023-08-06T09:35:18;97636.91;;;18.29;67.55
77381;BME280;66439;50.106;10.996;2023-08-06T09:37:22;97636.25;;;18.27;67.49
77381;BME280;66439;50.106;10.996;2023-08-06T09:39:31;97636.90;;;18.29;67.33
77381;BME280;66439;50.106;10.996;2023-08-06T09:41:34;97636.92;;;18.33;67.28
77381;BME280;66439;50.106;10.996;2023-08-06T09:43:42;97634.38;;;18.38;67.12
77381;BME280;66439;50.106;10.996;2023-08-06T09:45:49;97628.21;;;18.42;66.99
77381;BME280;66439;50.106;10.996;2023-08-06T09:47:56;97625.70;;;18.44;66.79
77381;BME280;66439;50.106;10.996;2023-08-06T09:50:03;97625.90;;;18.43;66.89
77381;BME280;66439;50.106;10.996;2023-08-06T09:52:06;97623.59;;;18.44;66.92
77381;BME280;66439;50.106;10.996;2023-08-06T09:54:15;97626.52;;;18.46;66.78
77381;BME280;66439;50.106;10.996;2023-08-06T09:56:31;97625.17;;;18.46;66.42
77381;BME280;66439;50.106;10.996;2023-08-06T09:58:41;97622.89;;;18.44;66.18
77381;BME280;66439;50.106;10.996;2023-08-06T10:00:44;97622.05;;;18.44;66.10
77381;BME280;66439;50.106;10.996;2023-08-06T10:02:49;97619.67;;;18.47;66.09
77381;BME280;66439;50.106;10.996;2023-08-06T10:04:57;97616.74;;;18.51;65.87
77381;BME280;66439;50.106;10.996;2023-08-06T10:07:07;97613.69;;;18.55;65.88
77381;BME280;66439;50.106;10.996;2023-08-06T10:09:09;97607.73;;;18.59;65.79
77381;BME280;66439;50.106;10.996;2023-08-06T10:11:15;97602.81;;;18.64;65.83
77381;BME280;66439;50.106;10.996;2023-08-06T10:13:21;97603.58;;;18.73;66.20
77381;BME280;66439;50.106;10.996;2023-08-06T10:15:28;97597.02;;;18.84;66.11
77381;BME280;66439;50.106;10.996;2023-08-06T10:17:34;97591.45;;;18.94;65.39
77381;BME280;66439;50.106;10.996;2023-08-06T10:19:52;97591.85;;;19.02;65.20
77381;BME280;66439;50.106;10.996;2023-08-06T10:22:16;97589.65;;;19.07;65.36
77381;BME280;66439;50.106;10.996;2023-08-06T10:24:24;97587.73;;;19.09;65.08
77381;BME280;66439;50.106;10.996;2023-08-06T10:26:28;97590.94;;;19.06;65.05
77381;BME280;66439;50.106;10.996;2023-08-06T10:28:39;97592.66;;;19.01;64.99
77381;BME280;66439;50.106;10.996;2023-08-06T10:30:47;97598.24;;;18.97;64.78
77381;BME280;66439;50.106;10.996;2023-08-06T10:32:55;97596.96;;;18.88;64.94
77381;BME280;66439;50.106;10.996;2023-08-06T10:35:03;97598.67;;;18.81;65.17
77381;BME280;66439;50.106;10.996;2023-08-06T10:37:09;97597.57;;;18.77;64.93
77381;BME280;66439;50.106;10.996;2023-08-06T10:39:16;97593.77;;;18.71;64.82
77381;BME280;66439;50.106;10.996;2023-08-06T10:41:33;97586.73;;;18.67;65.15
77381;BME280;66439;50.106;10.996;2023-08-06T10:43:37;97588.25;;;18.69;65.09
77381;BME280;66439;50.106;10.996;2023-08-06T10:45:50;97578.23;;;18.77;65.44
77381;BME280;66439;50.106;10.996;2023-08-06T10:47:53;97578.86;;;18.82;65.15
77381;BME280;66439;50.106;10.996;2023-08-06T10:49:57;97573.80;;;18.87;64.92
77381;BME280;66439;50.106;10.996;2023-08-06T10:52:10;97576.73;;;18.92;64.91
77381;BME280;66439;50.106;10.996;2023-08-06T10:54:13;97571.19;;;18.93;64.56
77381;BME280;66439;50.106;10.996;2023-08-06T10:56:19;97571.25;;;18.94;64.57
77381;BME280;66439;50.106;10.996;2023-08-06T10:58:24;97577.16;;;18.93;64.52
77381;BME280;66439;50.106;10.996;2023-08-06T11:00:29;97572.15;;;18.90;64.45